createdAt,value
2019-05-01T00:02:08.132Z,99.90
2019-05-01T00:05:12.136Z,99.90
2019-05-01T00:07:43.587Z,99.90
2019-05-01T00:10:14.629Z,99.90
2019-05-01T00:12:44.795Z,99.90
2019-05-01T00:15:15.077Z,99.90
2019-05-01T00:17:45.461Z,99.90
2019-05-01T00:20:15.795Z,99.90
2019-05-01T00:22:46.072Z,99.90
2019-05-01T00:25:16.255Z,99.90
2019-05-01T00:27:46.405Z,99.90
2019-05-01T00:30:29.359Z,99.90
2019-05-01T00:32:51.465Z,99.90
2019-05-01T00:35:21.783Z,99.90
2019-05-01T00:37:51.926Z,99.90
2019-05-01T00:40:22.179Z,99.90
2019-05-01T00:42:52.335Z,99.90
2019-05-01T00:45:22.512Z,99.90
2019-05-01T00:47:52.692Z,99.90
2019-05-01T00:50:22.879Z,99.90
2019-05-01T00:52:53.029Z,99.90
2019-05-01T00:55:40.820Z,99.90
2019-05-01T00:58:18.547Z,99.90
2019-05-01T01:00:57.836Z,99.90
2019-05-01T01:03:40.169Z,99.90
2019-05-01T01:06:10.343Z,99.90
2019-05-01T01:08:40.528Z,99.90
2019-05-01T01:11:10.708Z,99.90
2019-05-01T01:13:42.324Z,99.90
2019-05-01T01:16:12.560Z,99.90
2019-05-01T01:18:42.762Z,99.90
2019-05-01T01:21:12.972Z,99.90
2019-05-01T01:23:43.443Z,99.90
2019-05-01T01:26:13.607Z,99.90
2019-05-01T01:28:43.768Z,99.90
2019-05-01T01:31:13.962Z,99.90
2019-05-01T01:33:45.928Z,99.90
2019-05-01T01:36:16.492Z,99.90
2019-05-01T01:38:46.708Z,99.90
2019-05-01T01:41:17.093Z,99.90
2019-05-01T01:43:58.562Z,99.90
2019-05-01T01:46:30.462Z,99.90
2019-05-01T01:49:02.115Z,99.90
2019-05-01T01:51:32.549Z,99.90
2019-05-01T01:54:03.291Z,99.90
2019-05-01T01:56:33.467Z,99.90
2019-05-01T01:59:03.831Z,99.90
2019-05-01T02:01:42.372Z,99.90
2019-05-01T02:04:32.859Z,99.90
2019-05-01T02:07:03.091Z,99.90
2019-05-01T02:09:33.307Z,99.90
2019-05-01T02:12:03.516Z,99.90
2019-05-01T02:14:33.704Z,99.90
2019-05-01T02:17:03.882Z,99.90
2019-05-01T02:19:34.119Z,99.90
2019-05-01T02:22:04.349Z,99.90
2019-05-01T02:24:34.538Z,99.90
2019-05-01T02:27:09.667Z,99.90
2019-05-01T02:29:47.961Z,99.90
2019-05-01T02:32:20.235Z,99.90
2019-05-01T02:34:51.511Z,99.90
2019-05-01T02:37:22.988Z,99.90
2019-05-01T02:39:54.467Z,99.90
2019-05-01T02:42:27.805Z,99.90
2019-05-01T02:45:00.804Z,99.90
2019-05-01T02:47:35.428Z,99.90
2019-05-01T02:50:08.223Z,99.90
2019-05-01T02:52:41.917Z,99.90
2019-05-01T02:55:39.029Z,99.90
2019-05-01T02:58:11.916Z,99.90
2019-05-01T03:00:42.697Z,99.90
2019-05-01T03:03:12.934Z,99.90
2019-05-01T03:05:43.263Z,99.90
2019-05-01T03:08:13.619Z,99.90
2019-05-01T03:10:43.929Z,99.90
2019-05-01T03:13:14.276Z,99.90
2019-05-01T03:15:44.450Z,99.90
2019-05-01T03:18:29.911Z,99.90
2019-05-01T03:21:08.785Z,99.90
2019-05-01T03:24:01.157Z,99.90
2019-05-01T03:26:31.842Z,99.90
2019-05-01T03:29:02.108Z,99.90
2019-05-01T03:31:32.482Z,99.90
2019-05-01T03:34:02.837Z,99.90
2019-05-01T03:36:33.512Z,99.90
2019-05-01T03:39:05.618Z,99.90
2019-05-01T03:41:35.968Z,99.90
2019-05-01T03:44:06.484Z,99.90
2019-05-01T03:46:37.109Z,99.90
2019-05-01T03:49:07.412Z,99.90
2019-05-01T03:51:37.947Z,99.90
2019-05-01T03:54:08.099Z,99.90
2019-05-01T03:56:38.576Z,99.90
2019-05-01T03:59:09.344Z,99.90
2019-05-01T04:02:08.483Z,99.90
2019-05-01T04:04:38.867Z,99.90
2019-05-01T04:07:09.116Z,99.90
2019-05-01T04:09:39.505Z,99.90
2019-05-01T04:12:09.736Z,99.90
2019-05-01T04:14:40.517Z,99.90
2019-05-01T04:17:22.671Z,99.90
2019-05-01T04:19:52.834Z,99.90
2019-05-01T04:22:22.988Z,99.90
2019-05-01T04:24:53.439Z,99.90
2019-05-01T04:27:28.756Z,99.90
2019-05-01T04:30:19.053Z,99.90
2019-05-01T04:32:53.216Z,99.90
2019-05-01T04:35:27.016Z,99.90
2019-05-01T04:37:58.831Z,99.90
2019-05-01T04:40:30.011Z,99.90
2019-05-01T04:43:00.348Z,99.90
2019-05-01T04:45:31.014Z,99.90
2019-05-01T04:48:01.282Z,99.90
2019-05-01T04:50:31.857Z,99.90
2019-05-01T04:53:02.116Z,99.90
2019-05-01T04:55:32.787Z,99.90
2019-05-01T04:58:02.960Z,99.90
2019-05-01T05:00:33.683Z,99.90
2019-05-01T05:03:07.726Z,99.90
2019-05-01T05:05:38.516Z,99.90
2019-05-01T05:08:08.871Z,99.90
2019-05-01T05:10:39.362Z,99.90
2019-05-01T05:13:15.868Z,99.90
2019-05-01T05:16:05.111Z,99.90
2019-05-01T05:18:35.478Z,99.90
2019-05-01T05:21:05.952Z,99.90
2019-05-01T05:23:36.249Z,99.90
2019-05-01T05:26:06.619Z,99.90
2019-05-01T05:28:37.699Z,99.90
2019-05-01T05:31:08.850Z,99.90
2019-05-01T05:33:39.716Z,99.90
2019-05-01T05:36:11.492Z,99.90
2019-05-01T05:38:49.011Z,99.90
2019-05-01T05:41:21.256Z,99.90
2019-05-01T05:43:51.421Z,99.90
2019-05-01T05:46:21.696Z,99.90
2019-05-01T05:48:52.551Z,99.90
2019-05-01T05:51:50.187Z,99.90
2019-05-01T05:55:00.042Z,99.90
2019-05-01T05:57:59.587Z,99.90
2019-05-01T06:00:57.744Z,99.90
2019-05-01T06:03:59.046Z,99.90
2019-05-01T06:06:40.808Z,99.90
2019-05-01T06:09:13.886Z,99.90
2019-05-01T06:12:04.897Z,99.90
2019-05-01T06:14:45.195Z,99.90
2019-05-01T06:17:37.187Z,99.90
2019-05-01T06:20:25.799Z,99.90
2019-05-01T06:23:20.641Z,99.90
2019-05-01T06:25:54.176Z,99.90
2019-05-01T06:28:24.772Z,99.90
2019-05-01T06:30:58.139Z,99.90
2019-05-01T06:33:28.316Z,99.90
2019-05-01T06:35:58.477Z,99.90
2019-05-01T06:38:31.549Z,99.90
2019-05-01T06:41:01.481Z,99.90
2019-05-01T06:43:44.606Z,99.90
2019-05-01T06:46:29.140Z,99.90
2019-05-01T06:49:12.925Z,99.90
2019-05-01T06:51:53.128Z,99.90
2019-05-01T06:54:22.905Z,99.90
2019-05-01T06:56:53.794Z,99.90
2019-05-01T06:59:26.141Z,99.90
2019-05-01T07:02:00.217Z,99.90
2019-05-01T07:04:32.227Z,99.90
2019-05-01T07:07:06.746Z,99.90
2019-05-01T07:09:38.837Z,99.90
2019-05-01T07:12:14.074Z,99.90
2019-05-01T07:14:47.164Z,99.90
2019-05-01T07:17:16.607Z,99.90
2019-05-01T07:20:16.785Z,99.90
2019-05-01T07:22:48.036Z,99.90
2019-05-01T07:25:18.573Z,99.90
2019-05-01T07:27:48.855Z,99.90
2019-05-01T07:30:41.248Z,99.90
2019-05-01T07:33:12.110Z,99.90
2019-05-01T07:35:43.144Z,99.90
2019-05-01T07:38:13.584Z,99.90
2019-05-01T07:40:44.160Z,99.90
2019-05-01T07:43:25.635Z,99.90
2019-05-01T07:46:26.933Z,99.90
2019-05-01T07:48:57.642Z,99.90
2019-05-01T07:51:27.827Z,99.90
2019-05-01T07:54:03.432Z,99.90
2019-05-01T07:56:31.459Z,99.90
2019-05-01T07:59:01.827Z,99.90
2019-05-01T08:02:00.188Z,99.90
2019-05-01T08:04:37.526Z,99.90
2019-05-01T08:07:02.235Z,99.90
2019-05-01T08:09:33.504Z,99.90
2019-05-01T08:12:03.776Z,99.90
2019-05-01T08:14:33.936Z,99.90
2019-05-01T08:17:04.132Z,99.90
2019-05-01T08:19:51.684Z,99.90
2019-05-01T08:22:27.446Z,99.90
2019-05-01T08:24:58.629Z,99.90
2019-05-01T08:27:51.052Z,99.90
2019-05-01T08:30:48.094Z,99.90
2019-05-01T08:33:36.408Z,99.90
2019-05-01T08:36:11.578Z,99.90
2019-05-01T08:38:40.151Z,99.90
2019-05-01T08:41:10.358Z,99.90
2019-05-01T08:43:40.831Z,99.90
2019-05-01T08:46:33.047Z,99.90
2019-05-01T08:49:24.962Z,99.90
2019-05-01T08:51:55.123Z,99.90
2019-05-01T08:54:28.949Z,99.90
2019-05-01T08:57:01.119Z,99.90
2019-05-01T08:59:31.307Z,99.90
2019-05-01T09:02:09.462Z,99.90
2019-05-01T09:04:33.438Z,99.90
2019-05-01T09:07:03.651Z,99.90
2019-05-01T09:09:33.854Z,99.90
2019-05-01T09:12:06.926Z,99.90
2019-05-01T09:14:36.861Z,99.90
2019-05-01T09:17:07.389Z,99.90
2019-05-01T09:19:37.630Z,99.90
2019-05-01T09:22:07.960Z,99.90
2019-05-01T09:24:38.471Z,99.90
2019-05-01T09:27:33.693Z,99.90
2019-05-01T09:30:13.455Z,99.90
2019-05-01T09:32:45.957Z,99.90
2019-05-01T09:35:16.402Z,99.90
2019-05-01T09:37:48.091Z,99.90
2019-05-01T09:40:18.668Z,99.90
2019-05-01T09:42:49.028Z,99.90
2019-05-01T09:45:19.340Z,99.90
2019-05-01T09:47:49.524Z,99.90
2019-05-01T09:50:19.680Z,99.90
2019-05-01T09:53:00.996Z,99.90
2019-05-01T09:55:50.250Z,99.90
2019-05-01T09:58:20.612Z,99.90
2019-05-01T10:00:53.007Z,99.90
2019-05-01T10:03:24.119Z,99.90
2019-05-01T10:05:54.467Z,99.90
2019-05-01T10:08:24.659Z,99.90
2019-05-01T10:10:54.855Z,99.90
2019-05-01T10:13:25.063Z,99.90
2019-05-01T10:15:55.284Z,99.90
2019-05-01T10:18:25.590Z,99.90
2019-05-01T10:20:55.807Z,99.90
2019-05-01T10:23:26.000Z,99.90
2019-05-01T10:25:57.924Z,99.90
2019-05-01T10:28:37.317Z,99.90
2019-05-01T10:31:16.355Z,99.90
2019-05-01T10:33:47.646Z,99.90
2019-05-01T10:36:43.779Z,99.90
2019-05-01T10:39:16.071Z,99.90
2019-05-01T10:41:47.806Z,99.90
2019-05-01T10:44:18.247Z,99.90
2019-05-01T10:46:48.590Z,99.90
2019-05-01T10:49:18.824Z,99.90
2019-05-01T10:51:49.021Z,99.90
2019-05-01T10:54:19.226Z,99.90
2019-05-01T10:56:49.520Z,99.90
2019-05-01T10:59:19.696Z,99.90
2019-05-01T11:01:53.644Z,99.90
2019-05-01T11:04:23.889Z,99.90
2019-05-01T11:06:55.143Z,99.90
2019-05-01T11:09:25.324Z,99.90
2019-05-01T11:11:55.570Z,99.90
2019-05-01T11:14:25.751Z,99.90
2019-05-01T11:16:56.092Z,99.90
2019-05-01T11:19:26.443Z,99.90
2019-05-01T11:21:57.767Z,99.90
2019-05-01T11:24:28.971Z,99.90
2019-05-01T11:26:59.187Z,99.90
2019-05-01T11:29:29.457Z,99.90
2019-05-01T11:32:17.509Z,99.90
2019-05-01T11:34:57.470Z,99.90
2019-05-01T11:37:46.662Z,99.90
2019-05-01T11:40:38.621Z,99.90
2019-05-01T11:43:08.881Z,99.90
2019-05-01T11:45:39.093Z,99.90
2019-05-01T11:48:09.276Z,99.90
2019-05-01T11:50:39.493Z,99.90
2019-05-01T11:53:09.898Z,99.90
2019-05-01T11:55:40.594Z,99.90
2019-05-01T11:58:10.769Z,99.90
2019-05-01T12:00:41.179Z,99.90
2019-05-01T12:03:11.376Z,99.90
2019-05-01T12:05:41.535Z,99.90
2019-05-01T12:08:11.728Z,99.90
2019-05-01T12:10:41.900Z,99.90
2019-05-01T12:13:12.163Z,99.90
2019-05-01T12:15:43.938Z,1.00
2019-05-01T12:18:14.146Z,1.00
2019-05-01T12:20:44.348Z,1.00
2019-05-01T12:23:25.857Z,99.90
2019-05-01T12:25:56.068Z,99.90
2019-05-01T12:28:26.272Z,1.00
2019-05-01T12:30:56.456Z,1.00
2019-05-01T12:33:26.680Z,1.00
2019-05-01T12:35:58.509Z,1.00
2019-05-01T12:38:28.796Z,1.00
2019-05-01T12:41:16.549Z,1.00
2019-05-01T12:43:46.785Z,99.90
2019-05-01T12:46:37.927Z,1.00
2019-05-01T12:49:08.119Z,99.90
2019-05-01T12:51:39.341Z,99.90
2019-05-01T12:54:15.450Z,40.20
2019-05-01T12:56:51.240Z,1.00
2019-05-01T12:59:21.487Z,41.80
2019-05-01T13:01:51.692Z,99.90
2019-05-01T13:04:21.914Z,68.70
2019-05-01T13:06:55.032Z,1.00
2019-05-01T13:09:26.828Z,45.00
2019-05-01T13:11:57.031Z,1.00
2019-05-01T13:14:27.319Z,1.00
2019-05-01T13:16:57.514Z,84.70
2019-05-01T13:19:27.786Z,99.90
2019-05-01T13:21:57.997Z,92.00
2019-05-01T13:24:28.178Z,1.00
2019-05-01T13:27:13.940Z,99.90
2019-05-01T13:29:49.312Z,99.90
2019-05-01T13:32:41.754Z,1.00
2019-05-01T13:35:12.128Z,1.00
2019-05-01T13:37:42.519Z,49.70
2019-05-01T13:40:13.373Z,99.90
2019-05-01T13:42:43.799Z,99.90
2019-05-01T13:45:15.380Z,1.00
2019-05-01T13:47:45.851Z,1.00
2019-05-01T13:50:16.160Z,1.00
2019-05-01T13:52:46.570Z,1.00
2019-05-01T13:55:16.965Z,1.00
2019-05-01T13:57:47.496Z,1.00
2019-05-01T14:00:19.779Z,1.00
2019-05-01T14:02:50.163Z,1.00
2019-05-01T14:05:20.577Z,1.00
2019-05-01T14:07:50.808Z,1.00
2019-05-01T14:10:21.269Z,1.00
2019-05-01T14:12:51.578Z,1.00
2019-05-01T14:15:21.779Z,1.00
2019-05-01T14:17:52.107Z,1.00
2019-05-01T14:20:56.463Z,1.00
2019-05-01T14:23:33.374Z,1.00
2019-05-01T14:26:03.700Z,1.00
2019-05-01T14:28:35.107Z,1.00
2019-05-01T14:31:06.033Z,1.00
2019-05-01T14:33:36.341Z,1.00
2019-05-01T14:36:06.522Z,1.00
2019-05-01T14:38:36.740Z,1.00
2019-05-01T14:41:07.006Z,99.90
2019-05-01T14:43:37.195Z,99.90
2019-05-01T14:46:07.396Z,99.90
2019-05-01T14:48:37.598Z,99.90
2019-05-01T14:51:07.808Z,99.90
2019-05-01T14:53:38.019Z,99.90
2019-05-01T14:56:08.209Z,99.90
2019-05-01T14:58:38.413Z,1.00
2019-05-01T15:01:08.603Z,99.90
2019-05-01T15:03:38.795Z,99.90
2019-05-01T15:06:08.987Z,99.90
2019-05-01T15:08:39.200Z,99.90
2019-05-01T15:11:09.383Z,99.90
2019-05-01T15:13:52.073Z,99.90
2019-05-01T15:16:26.830Z,1.00
2019-05-01T15:19:17.514Z,99.90
2019-05-01T15:21:47.691Z,99.90
2019-05-01T15:24:17.872Z,99.90
2019-05-01T15:26:48.063Z,1.00
2019-05-01T15:29:18.288Z,99.90
2019-05-01T15:31:48.468Z,99.90
2019-05-01T15:34:18.891Z,99.90
2019-05-01T15:36:49.079Z,99.90
2019-05-01T15:39:30.339Z,99.90
2019-05-01T15:42:18.341Z,99.90
2019-05-01T15:44:48.520Z,1.00
2019-05-01T15:47:18.739Z,1.00
2019-05-01T15:49:48.960Z,1.00
2019-05-01T15:52:19.177Z,1.00
2019-05-01T15:54:49.327Z,1.00
2019-05-01T15:57:19.519Z,1.00
2019-05-01T15:59:49.743Z,1.00
2019-05-01T16:02:20.024Z,99.90
2019-05-01T16:04:50.288Z,99.90
2019-05-01T16:07:20.607Z,99.90
2019-05-01T16:09:50.890Z,99.90
2019-05-01T16:12:35.349Z,99.90
2019-05-01T16:15:10.416Z,99.90
2019-05-01T16:17:40.702Z,1.00
2019-05-01T16:20:11.298Z,1.00
2019-05-01T16:22:41.455Z,1.00
2019-05-01T16:25:11.971Z,99.90
2019-05-01T16:27:42.505Z,99.90
2019-05-01T16:30:15.559Z,1.00
2019-05-01T16:32:45.878Z,1.00
2019-05-01T16:35:16.028Z,1.00
2019-05-01T16:37:46.307Z,1.00
2019-05-01T16:40:26.830Z,1.00
2019-05-01T16:42:57.001Z,1.00
2019-05-01T16:45:28.144Z,1.00
2019-05-01T16:47:58.458Z,1.00
2019-05-01T16:50:28.649Z,1.00
2019-05-01T16:52:58.876Z,1.00
2019-05-01T16:55:29.259Z,1.00
2019-05-01T16:57:59.411Z,1.00
2019-05-01T17:01:10.655Z,99.90
2019-05-01T17:03:58.464Z,1.00
2019-05-01T17:06:46.320Z,1.00
2019-05-01T17:09:34.815Z,1.00
2019-05-01T17:12:05.930Z,99.90
2019-05-01T17:14:36.336Z,99.90
2019-05-01T17:17:08.272Z,1.00
2019-05-01T17:19:38.466Z,99.90
2019-05-01T17:22:09.377Z,1.00
2019-05-01T17:24:41.363Z,1.00
2019-05-01T17:27:12.285Z,99.90
2019-05-01T17:29:43.335Z,1.00
2019-05-01T17:32:15.493Z,1.00
2019-05-01T17:34:46.005Z,1.00
2019-05-01T17:37:16.633Z,1.00
2019-05-01T17:39:48.527Z,1.00
2019-05-01T17:42:19.668Z,1.00
2019-05-01T17:44:50.107Z,1.00
2019-05-01T17:47:22.505Z,1.00
2019-05-01T17:49:52.259Z,1.00
2019-05-01T17:52:23.091Z,1.00
2019-05-01T17:54:54.049Z,1.00
2019-05-01T17:57:25.098Z,1.00
2019-05-01T17:59:58.063Z,1.00
2019-05-01T18:02:53.195Z,36.20
2019-05-01T18:05:45.365Z,99.90
2019-05-01T18:08:17.465Z,1.00
2019-05-01T18:10:48.639Z,32.70
2019-05-01T18:13:19.592Z,15.40
2019-05-01T18:15:50.178Z,90.60
2019-05-01T18:18:20.375Z,99.90
2019-05-01T18:20:52.255Z,99.90
2019-05-01T18:23:47.608Z,1.00
2019-05-01T18:26:54.179Z,1.00
2019-05-01T18:29:35.535Z,1.00
2019-05-01T18:32:08.249Z,99.90
2019-05-01T18:34:39.497Z,99.90
2019-05-01T18:37:17.632Z,1.00
2019-05-01T18:39:48.379Z,1.00
2019-05-01T18:42:18.794Z,1.00
2019-05-01T18:44:50.976Z,99.90
2019-05-01T18:47:22.242Z,1.00
2019-05-01T18:49:52.926Z,1.00
2019-05-01T18:52:23.872Z,99.90
2019-05-01T18:54:54.472Z,99.90
2019-05-01T18:57:24.690Z,1.00
2019-05-01T18:59:54.887Z,99.90
2019-05-01T19:02:26.224Z,1.00
2019-05-01T19:04:57.235Z,1.00
2019-05-01T19:07:27.700Z,1.00
2019-05-01T19:09:58.421Z,99.90
2019-05-01T19:12:31.235Z,99.90
2019-05-01T19:15:05.572Z,19.00
2019-05-01T19:17:35.561Z,1.00
2019-05-01T19:20:07.061Z,1.00
2019-05-01T19:22:38.152Z,1.00
2019-05-01T19:25:10.923Z,1.00
2019-05-01T19:27:41.621Z,99.90
2019-05-01T19:30:14.829Z,99.90
2019-05-01T19:32:44.325Z,99.90
2019-05-01T19:35:14.850Z,1.00
2019-05-01T19:37:45.091Z,1.00
2019-05-01T19:40:15.851Z,99.90
2019-05-01T19:42:46.170Z,1.00
2019-05-01T19:45:18.318Z,99.90
2019-05-01T19:47:48.910Z,99.90
2019-05-01T19:50:19.223Z,1.00
2019-05-01T19:52:49.482Z,1.00
2019-05-01T19:55:20.982Z,99.90
2019-05-01T19:57:51.289Z,1.00
2019-05-01T20:00:44.764Z,1.00
2019-05-01T20:03:16.085Z,1.00
2019-05-01T20:05:46.350Z,99.90
2019-05-01T20:08:18.176Z,99.90
2019-05-01T20:10:48.477Z,1.00
2019-05-01T20:13:18.952Z,1.00
2019-05-01T20:15:49.225Z,1.00
2019-05-01T20:18:19.611Z,1.00
2019-05-01T20:20:49.947Z,1.00
2019-05-01T20:23:20.160Z,99.90
2019-05-01T20:25:55.380Z,1.00
2019-05-01T20:28:22.526Z,1.00
2019-05-01T20:30:52.820Z,1.00
2019-05-01T20:33:23.117Z,1.00
2019-05-01T20:35:53.320Z,1.00
2019-05-01T20:38:23.527Z,90.50
2019-05-01T20:40:53.847Z,99.90
2019-05-01T20:43:24.156Z,64.50
2019-05-01T20:45:54.346Z,99.90
2019-05-01T20:48:26.221Z,1.00
2019-05-01T20:50:56.545Z,1.00
2019-05-01T20:53:26.768Z,99.90
2019-05-01T20:56:03.398Z,1.00
2019-05-01T20:58:36.012Z,99.90
2019-05-01T21:01:06.190Z,99.90
2019-05-01T21:03:38.017Z,1.00
2019-05-01T21:06:17.371Z,1.00
2019-05-01T21:08:57.717Z,1.00
2019-05-01T21:11:34.092Z,1.00
2019-05-01T21:14:19.729Z,1.00
2019-05-01T21:16:39.650Z,1.00
2019-05-01T21:19:09.842Z,1.00
2019-05-01T21:21:40.032Z,1.00
2019-05-01T21:24:10.204Z,99.90
2019-05-01T21:26:44.191Z,49.40
2019-05-01T21:29:14.415Z,95.90
2019-05-01T21:31:44.689Z,99.90
2019-05-01T21:34:14.861Z,1.00
2019-05-01T21:36:47.616Z,1.00
2019-05-01T21:39:17.994Z,1.00
2019-05-01T21:41:48.849Z,1.00
2019-05-01T21:44:19.015Z,1.00
2019-05-01T21:46:50.324Z,1.00
2019-05-01T21:49:20.525Z,1.00
2019-05-01T21:51:53.025Z,1.50
2019-05-01T21:54:23.256Z,99.90
2019-05-01T21:56:53.427Z,99.90
2019-05-01T21:59:25.492Z,99.90
2019-05-01T22:01:55.647Z,99.90
2019-05-01T22:04:31.904Z,99.90
2019-05-01T22:07:00.715Z,99.90
2019-05-01T22:09:32.379Z,99.90
2019-05-01T22:12:02.745Z,99.90
2019-05-01T22:14:41.380Z,99.90
2019-05-01T22:17:39.739Z,99.90
2019-05-01T22:20:11.870Z,99.90
2019-05-01T22:22:47.590Z,99.90
2019-05-01T22:25:21.550Z,99.90
2019-05-01T22:27:57.131Z,99.90
2019-05-01T22:30:46.426Z,99.90
2019-05-01T22:33:17.403Z,99.90
2019-05-01T22:35:50.191Z,99.90
2019-05-01T22:38:20.464Z,99.90
2019-05-01T22:41:06.482Z,99.90
2019-05-01T22:43:33.378Z,99.90
2019-05-01T22:46:04.775Z,99.90
2019-05-01T22:48:34.923Z,99.90
2019-05-01T22:51:18.368Z,99.90
2019-05-01T22:53:54.419Z,99.90
2019-05-01T22:56:25.839Z,99.90
2019-05-01T22:58:56.005Z,99.90
2019-05-01T23:01:27.297Z,99.90
2019-05-01T23:04:07.569Z,99.90
2019-05-01T23:06:41.768Z,99.90
2019-05-01T23:09:11.983Z,99.90
2019-05-01T23:11:44.767Z,99.90
2019-05-01T23:14:15.120Z,99.90
2019-05-01T23:16:52.311Z,99.90
2019-05-01T23:19:22.904Z,99.90
2019-05-01T23:21:54.423Z,99.90
2019-05-01T23:24:24.595Z,99.90
2019-05-01T23:26:54.762Z,99.90
2019-05-01T23:29:24.915Z,99.90
2019-05-01T23:31:55.487Z,99.90
2019-05-01T23:34:26.140Z,99.90
2019-05-01T23:36:57.611Z,99.90
2019-05-01T23:39:27.909Z,99.90
2019-05-01T23:41:58.059Z,99.90
2019-05-01T23:44:28.245Z,99.90
2019-05-01T23:46:58.407Z,99.90
2019-05-01T23:49:28.579Z,99.90
2019-05-01T23:52:03.213Z,99.90
2019-05-01T23:54:30.632Z,99.90
2019-05-01T23:57:01.756Z,99.90
2019-05-01T23:59:31.921Z,99.90
